createdAt,value
2022-10-26T00:01:07.266Z,91.81
2022-10-26T00:03:38.481Z,91.74
2022-10-26T00:06:26.460Z,91.80
2022-10-26T00:08:55.058Z,91.87
2022-10-26T00:11:22.739Z,91.80
2022-10-26T00:13:50.535Z,91.96
2022-10-26T00:16:26.904Z,92.00
2022-10-26T00:18:54.015Z,91.88
2022-10-26T00:21:20.547Z,91.82
2022-10-26T00:23:47.314Z,91.76
2022-10-26T00:26:13.995Z,91.71
2022-10-26T00:28:41.067Z,91.69
2022-10-26T00:31:13.172Z,91.56
2022-10-26T00:33:40.146Z,91.49
2022-10-26T00:36:09.489Z,91.41
2022-10-26T00:38:37.132Z,91.36
2022-10-26T00:41:04.646Z,91.31
2022-10-26T00:43:31.184Z,91.22
2022-10-26T00:46:01.002Z,91.18
2022-10-26T00:48:32.356Z,91.20
2022-10-26T00:51:05.535Z,91.26
2022-10-26T00:53:32.981Z,91.33
2022-10-26T00:56:00.596Z,91.29
2022-10-26T00:58:27.970Z,91.21
2022-10-26T01:00:55.000Z,91.07
2022-10-26T01:03:27.574Z,91.06
2022-10-26T01:05:57.185Z,90.99
2022-10-26T01:08:25.859Z,90.98
2022-10-26T01:10:52.978Z,91.01
2022-10-26T01:13:20.198Z,90.96
2022-10-26T01:15:55.879Z,90.94
2022-10-26T01:18:54.002Z,90.92
2022-10-26T01:21:39.019Z,90.92
2022-10-26T01:24:13.712Z,90.91
2022-10-26T01:26:54.360Z,90.89
2022-10-26T01:29:51.558Z,90.91
2022-10-26T01:32:23.995Z,90.90
2022-10-26T01:35:06.274Z,90.85
2022-10-26T01:37:39.430Z,90.94
2022-10-26T01:40:12.555Z,91.02
2022-10-26T01:42:44.515Z,90.99
2022-10-26T01:45:13.629Z,91.01
2022-10-26T01:47:41.307Z,90.99
2022-10-26T01:50:13.356Z,91.02
2022-10-26T01:52:40.438Z,90.99
2022-10-26T01:55:45.683Z,90.94
2022-10-26T01:58:24.415Z,90.86
2022-10-26T02:01:30.291Z,90.88
2022-10-26T02:04:15.116Z,90.95
2022-10-26T02:06:56.986Z,91.10
2022-10-26T02:09:29.499Z,91.08
2022-10-26T02:11:58.697Z,91.07
2022-10-26T02:14:33.753Z,91.11
2022-10-26T02:17:28.474Z,91.14
2022-10-26T02:20:05.771Z,91.12
2022-10-26T02:22:34.539Z,91.25
2022-10-26T02:25:07.526Z,91.22
2022-10-26T02:27:39.279Z,91.25
2022-10-26T02:30:07.980Z,91.38
2022-10-26T02:32:40.955Z,91.37
2022-10-26T02:35:08.497Z,91.39
2022-10-26T02:37:37.311Z,91.36
2022-10-26T02:40:11.218Z,91.31
2022-10-26T02:42:42.569Z,91.29
2022-10-26T02:45:13.114Z,91.24
2022-10-26T02:47:39.854Z,91.25
2022-10-26T02:50:06.970Z,91.29
2022-10-26T02:53:08.134Z,91.25
2022-10-26T02:55:44.388Z,91.27
2022-10-26T02:58:16.898Z,91.18
2022-10-26T03:00:45.654Z,91.12
2022-10-26T03:03:13.251Z,91.03
2022-10-26T03:05:42.359Z,90.98
2022-10-26T03:08:09.445Z,91.13
2022-10-26T03:10:45.515Z,91.09
2022-10-26T03:13:13.535Z,91.22
2022-10-26T03:15:40.994Z,91.22
2022-10-26T03:18:08.219Z,91.22
2022-10-26T03:20:35.131Z,91.16
2022-10-26T03:23:02.275Z,91.11
2022-10-26T03:25:29.032Z,91.03
2022-10-26T03:27:57.697Z,90.98
2022-10-26T03:30:24.851Z,90.94
2022-10-26T03:32:51.955Z,90.96
2022-10-26T03:35:19.085Z,90.91
2022-10-26T03:37:46.114Z,90.77
2022-10-26T03:40:13.393Z,90.65
2022-10-26T03:42:40.714Z,90.52
2022-10-26T03:45:08.779Z,90.52
2022-10-26T03:47:46.482Z,90.42
2022-10-26T03:50:15.056Z,90.41
2022-10-26T03:52:42.081Z,90.14
2022-10-26T03:55:09.415Z,90.12
2022-10-26T03:57:43.336Z,90.09
2022-10-26T04:00:14.857Z,90.12
2022-10-26T04:02:48.198Z,89.98
2022-10-26T04:05:16.154Z,89.85
2022-10-26T04:07:42.877Z,89.79
2022-10-26T04:10:10.105Z,89.64
2022-10-26T04:12:39.670Z,89.64
2022-10-26T04:15:07.533Z,89.40
2022-10-26T04:17:34.311Z,89.45
2022-10-26T04:20:00.969Z,89.23
2022-10-26T04:22:27.819Z,89.29
2022-10-26T04:24:54.297Z,89.33
2022-10-26T04:27:21.468Z,89.16
2022-10-26T04:29:48.071Z,88.94
2022-10-26T04:32:14.966Z,89.08
2022-10-26T04:34:41.635Z,89.16
2022-10-26T04:37:08.551Z,89.28
2022-10-26T04:39:35.067Z,89.31
2022-10-26T04:42:01.485Z,89.26
2022-10-26T04:44:28.178Z,89.17
2022-10-26T04:46:54.878Z,89.02
2022-10-26T04:49:21.587Z,89.07
2022-10-26T04:51:48.426Z,89.31
2022-10-26T04:54:15.256Z,89.42
2022-10-26T04:56:42.053Z,89.63
2022-10-26T04:59:08.734Z,89.50
2022-10-26T05:01:35.512Z,89.51
2022-10-26T05:04:02.403Z,89.56
2022-10-26T05:06:29.737Z,89.55
2022-10-26T05:08:56.646Z,89.60
2022-10-26T05:11:23.317Z,89.55
2022-10-26T05:13:49.961Z,89.60
2022-10-26T05:16:16.679Z,89.57
2022-10-26T05:18:43.148Z,89.60
2022-10-26T05:21:09.654Z,89.62
2022-10-26T05:23:36.188Z,89.48
2022-10-26T05:26:02.925Z,89.49
2022-10-26T05:28:29.457Z,89.40
2022-10-26T05:30:58.016Z,89.25
2022-10-26T05:33:24.694Z,89.33
2022-10-26T05:35:55.180Z,89.34
2022-10-26T05:38:21.986Z,89.32
2022-10-26T05:40:54.111Z,89.16
2022-10-26T05:43:22.555Z,89.05
2022-10-26T05:45:50.361Z,89.06
2022-10-26T05:48:17.344Z,89.00
2022-10-26T05:50:45.036Z,88.38
2022-10-26T05:53:11.941Z,88.44
2022-10-26T05:55:39.058Z,88.30
2022-10-26T05:58:16.178Z,87.85
2022-10-26T06:01:23.971Z,87.55
2022-10-26T06:04:29.247Z,87.65
2022-10-26T06:06:57.052Z,87.12
2022-10-26T06:09:24.311Z,86.92
2022-10-26T06:11:51.598Z,86.99
2022-10-26T06:14:18.640Z,86.94
2022-10-26T06:16:48.145Z,86.49
2022-10-26T06:19:57.515Z,85.82
2022-10-26T06:22:31.457Z,85.60
2022-10-26T06:25:22.090Z,85.72
2022-10-26T06:28:01.355Z,85.41
2022-10-26T06:30:28.245Z,85.58
2022-10-26T06:33:05.676Z,85.54
2022-10-26T06:35:53.926Z,85.70
2022-10-26T06:38:23.045Z,85.28
2022-10-26T06:40:55.995Z,84.38
2022-10-26T06:43:27.069Z,84.55
2022-10-26T06:46:08.365Z,84.71
2022-10-26T06:48:47.635Z,84.51
2022-10-26T06:51:16.856Z,84.72
2022-10-26T06:53:49.234Z,84.18
2022-10-26T06:56:17.728Z,83.88
2022-10-26T06:58:45.730Z,84.07
2022-10-26T07:01:12.863Z,84.28
2022-10-26T07:03:40.618Z,83.99
2022-10-26T07:06:09.263Z,83.85
2022-10-26T07:08:36.348Z,83.22
2022-10-26T07:11:04.570Z,83.00
2022-10-26T07:13:31.214Z,82.54
2022-10-26T07:15:57.771Z,82.69
2022-10-26T07:18:24.438Z,82.62
2022-10-26T07:20:51.280Z,82.97
2022-10-26T07:23:18.204Z,82.29
2022-10-26T07:25:44.908Z,82.30
2022-10-26T07:28:11.525Z,82.21
2022-10-26T07:30:39.723Z,81.31
2022-10-26T07:33:12.365Z,81.21
2022-10-26T07:35:40.335Z,81.33
2022-10-26T07:38:08.166Z,81.40
2022-10-26T07:40:37.085Z,81.45
2022-10-26T07:43:03.905Z,81.24
2022-10-26T07:45:30.703Z,81.47
2022-10-26T07:47:57.231Z,80.89
2022-10-26T07:50:24.597Z,80.89
2022-10-26T07:52:51.606Z,80.64
2022-10-26T07:55:19.650Z,80.26
2022-10-26T07:57:48.549Z,80.80
2022-10-26T08:00:21.233Z,81.08
2022-10-26T08:02:47.940Z,80.34
2022-10-26T08:05:14.898Z,80.60
2022-10-26T08:07:43.508Z,80.76
2022-10-26T08:10:11.682Z,80.76
2022-10-26T08:12:38.836Z,80.42
2022-10-26T08:15:06.938Z,79.82
2022-10-26T08:17:33.915Z,79.51
2022-10-26T08:20:00.650Z,79.50
2022-10-26T08:22:30.515Z,79.09
2022-10-26T08:24:57.409Z,79.50
2022-10-26T08:27:24.114Z,80.23
2022-10-26T08:29:50.870Z,80.53
2022-10-26T08:32:17.705Z,80.13
2022-10-26T08:34:44.489Z,80.44
2022-10-26T08:37:11.512Z,80.32
2022-10-26T08:39:38.269Z,79.81
2022-10-26T08:42:18.587Z,79.03
2022-10-26T08:44:57.797Z,79.10
2022-10-26T08:47:43.312Z,79.27
2022-10-26T08:50:26.610Z,79.60
2022-10-26T08:53:04.277Z,80.11
2022-10-26T08:55:45.071Z,80.19
2022-10-26T08:58:21.895Z,80.35
2022-10-26T09:00:50.322Z,80.46
2022-10-26T09:03:18.726Z,81.00
2022-10-26T09:05:45.614Z,81.33
2022-10-26T09:08:19.164Z,81.72
2022-10-26T09:10:56.395Z,82.02
2022-10-26T09:13:41.150Z,82.45
2022-10-26T09:16:25.015Z,82.77
2022-10-26T09:19:35.469Z,82.78
2022-10-26T09:22:30.158Z,82.81
2022-10-26T09:25:09.446Z,83.07
2022-10-26T09:27:44.634Z,82.87
2022-10-26T09:30:17.867Z,82.69
2022-10-26T09:32:51.825Z,82.34
2022-10-26T09:35:23.833Z,82.17
2022-10-26T09:37:58.121Z,82.37
2022-10-26T09:40:33.571Z,82.33
2022-10-26T09:43:06.891Z,82.42
2022-10-26T09:45:38.873Z,82.53
2022-10-26T09:48:07.705Z,82.44
2022-10-26T09:50:40.376Z,82.10
2022-10-26T09:53:07.109Z,82.33
2022-10-26T09:55:42.155Z,82.47
2022-10-26T09:58:23.744Z,82.68
2022-10-26T10:00:51.553Z,82.58
2022-10-26T10:03:27.035Z,82.33
2022-10-26T10:06:14.399Z,82.03
2022-10-26T10:08:41.458Z,82.04
2022-10-26T10:11:14.838Z,82.16
2022-10-26T10:13:45.687Z,82.13
2022-10-26T10:16:24.384Z,81.89
2022-10-26T10:18:59.748Z,81.04
2022-10-26T10:22:00.242Z,80.84
2022-10-26T10:24:28.313Z,80.89
2022-10-26T10:27:04.030Z,80.81
2022-10-26T10:29:41.681Z,80.78
2022-10-26T10:32:21.614Z,79.87
2022-10-26T10:35:23.709Z,79.64
2022-10-26T10:38:17.897Z,79.76
2022-10-26T10:41:13.295Z,79.58
2022-10-26T10:44:17.932Z,79.60
2022-10-26T10:47:05.585Z,78.90
2022-10-26T10:49:52.959Z,79.21
2022-10-26T10:52:38.395Z,78.67
2022-10-26T10:55:27.065Z,77.46
2022-10-26T10:58:26.951Z,77.34
2022-10-26T11:01:27.123Z,77.35
2022-10-26T11:04:35.514Z,76.63
2022-10-26T11:07:26.487Z,76.27
2022-10-26T11:10:17.260Z,75.60
2022-10-26T11:13:29.175Z,76.10
2022-10-26T11:16:05.505Z,76.42
2022-10-26T11:19:31.178Z,76.97
2022-10-26T11:21:58.143Z,76.80
2022-10-26T11:24:33.937Z,76.37
2022-10-26T11:27:08.918Z,76.69
2022-10-26T11:29:38.333Z,76.29
2022-10-26T11:32:23.476Z,76.55
2022-10-26T11:35:43.723Z,76.50
2022-10-26T11:38:56.959Z,76.04
2022-10-26T11:41:40.989Z,76.37
2022-10-26T11:44:19.694Z,76.83
2022-10-26T11:47:08.032Z,77.13
2022-10-26T11:49:34.730Z,76.86
2022-10-26T11:52:19.552Z,77.31
2022-10-26T11:55:00.153Z,77.84
2022-10-26T11:57:28.623Z,77.97
2022-10-26T12:00:02.546Z,77.13
2022-10-26T12:02:31.422Z,77.19
2022-10-26T12:05:17.032Z,77.76
2022-10-26T12:07:51.720Z,77.75
2022-10-26T12:10:31.924Z,78.05
2022-10-26T12:13:19.986Z,77.95
2022-10-26T12:16:22.092Z,78.57
2022-10-26T12:18:58.616Z,78.79
2022-10-26T12:21:30.887Z,78.83
2022-10-26T12:24:21.390Z,79.27
2022-10-26T12:26:57.971Z,79.74
2022-10-26T12:29:46.114Z,79.86
2022-10-26T12:32:27.740Z,80.21
2022-10-26T12:34:54.526Z,80.79
2022-10-26T12:37:36.671Z,80.57
2022-10-26T12:40:32.510Z,80.40
2022-10-26T12:43:14.446Z,80.55
2022-10-26T12:46:12.973Z,80.33
2022-10-26T12:48:41.147Z,77.39
2022-10-26T12:51:24.362Z,74.72
2022-10-26T12:54:07.505Z,74.02
2022-10-26T12:57:00.072Z,73.61
2022-10-26T13:00:00.620Z,72.82
2022-10-26T13:02:59.741Z,72.89
2022-10-26T13:05:57.395Z,74.00
2022-10-26T13:08:25.263Z,74.30
2022-10-26T13:11:12.617Z,74.68
2022-10-26T13:13:41.100Z,75.15
2022-10-26T13:16:13.065Z,75.30
2022-10-26T13:18:47.832Z,75.95
2022-10-26T13:21:19.959Z,76.50
2022-10-26T13:23:57.108Z,77.04
2022-10-26T13:26:26.512Z,77.63
2022-10-26T13:29:01.442Z,78.15
2022-10-26T13:31:28.429Z,78.41
2022-10-26T13:34:00.808Z,78.24
2022-10-26T13:36:40.296Z,78.35
2022-10-26T13:39:17.471Z,78.38
2022-10-26T13:41:47.534Z,78.45
2022-10-26T13:44:26.107Z,78.13
2022-10-26T13:46:57.943Z,78.28
2022-10-26T13:49:29.863Z,78.58
2022-10-26T13:52:02.552Z,79.04
2022-10-26T13:54:49.552Z,78.97
2022-10-26T13:57:32.778Z,78.60
2022-10-26T14:00:03.946Z,78.45
2022-10-26T14:02:32.011Z,77.85
2022-10-26T14:05:04.985Z,78.00
2022-10-26T14:07:40.125Z,78.34
2022-10-26T14:10:07.156Z,78.49
2022-10-26T14:12:34.157Z,78.15
2022-10-26T14:15:09.685Z,78.02
2022-10-26T14:17:36.476Z,78.06
2022-10-26T14:20:04.478Z,77.61
2022-10-26T14:22:31.360Z,77.70
2022-10-26T14:24:59.945Z,77.83
2022-10-26T14:27:39.707Z,77.91
2022-10-26T14:30:28.435Z,77.24
2022-10-26T14:32:56.001Z,76.81
2022-10-26T14:35:32.828Z,77.06
2022-10-26T14:38:29.602Z,77.62
2022-10-26T14:40:57.911Z,77.84
2022-10-26T14:43:26.809Z,78.15
2022-10-26T14:45:54.024Z,78.41
2022-10-26T14:48:27.930Z,78.69
2022-10-26T14:51:15.051Z,79.07
2022-10-26T14:53:50.472Z,79.41
2022-10-26T14:56:26.806Z,79.73
2022-10-26T14:58:54.855Z,79.99
2022-10-26T15:01:21.823Z,80.19
2022-10-26T15:04:03.196Z,80.40
2022-10-26T15:06:34.494Z,80.64
2022-10-26T15:09:04.654Z,80.86
2022-10-26T15:11:33.645Z,81.12
2022-10-26T15:14:02.715Z,81.29
2022-10-26T15:16:34.325Z,81.56
2022-10-26T15:19:13.672Z,81.86
2022-10-26T15:21:47.292Z,82.10
2022-10-26T15:24:24.597Z,82.36
2022-10-26T15:26:52.016Z,82.58
2022-10-26T15:29:39.045Z,82.73
2022-10-26T15:32:20.397Z,83.13
2022-10-26T15:35:29.987Z,83.34
2022-10-26T15:37:58.522Z,83.42
2022-10-26T15:40:27.437Z,83.25
2022-10-26T15:42:57.762Z,83.53
2022-10-26T15:45:32.376Z,83.46
2022-10-26T15:48:15.153Z,83.48
2022-10-26T15:50:42.015Z,83.68
2022-10-26T15:53:17.838Z,83.79
2022-10-26T15:55:44.671Z,83.89
2022-10-26T15:58:12.085Z,84.03
2022-10-26T16:00:38.832Z,84.21
2022-10-26T16:03:05.831Z,84.39
2022-10-26T16:07:59.167Z,84.79
2022-10-26T16:10:25.899Z,85.00
2022-10-26T16:12:52.535Z,85.18
2022-10-26T16:15:24.306Z,85.39
2022-10-26T16:17:52.356Z,85.62
2022-10-26T16:20:24.778Z,85.84
2022-10-26T16:22:52.469Z,86.01
2022-10-26T16:25:24.505Z,86.16
2022-10-26T16:27:56.770Z,86.38
2022-10-26T16:30:26.966Z,86.62
2022-10-26T16:32:56.716Z,86.95
2022-10-26T16:35:23.922Z,87.23
2022-10-26T16:37:50.742Z,87.45
2022-10-26T16:40:17.696Z,87.67
2022-10-26T16:42:44.813Z,87.79
2022-10-26T16:45:13.485Z,87.92
2022-10-26T16:47:40.836Z,88.02
2022-10-26T16:50:12.192Z,88.10
2022-10-26T16:52:39.864Z,88.19
2022-10-26T16:55:08.765Z,88.30
2022-10-26T16:57:36.776Z,88.45
2022-10-26T17:00:06.305Z,88.61
2022-10-26T17:02:33.202Z,88.72
2022-10-26T17:05:02.771Z,88.79
2022-10-26T17:07:32.785Z,88.83
2022-10-26T17:09:59.497Z,88.87
2022-10-26T17:14:53.008Z,88.99
2022-10-26T17:17:19.937Z,89.11
2022-10-26T17:19:46.688Z,89.32
2022-10-26T17:22:13.466Z,89.58
2022-10-26T17:24:40.400Z,89.77
2022-10-26T17:27:07.059Z,89.83
2022-10-26T17:29:33.926Z,89.92
2022-10-26T17:32:00.669Z,89.91
2022-10-26T17:34:27.505Z,89.87
2022-10-26T17:36:54.330Z,89.84
2022-10-26T17:39:21.078Z,89.83
2022-10-26T17:41:47.860Z,89.89
2022-10-26T17:44:14.685Z,89.90
2022-10-26T17:46:41.685Z,90.00
2022-10-26T17:49:08.324Z,90.10
2022-10-26T17:51:35.484Z,90.22
2022-10-26T17:54:02.624Z,90.30
2022-10-26T17:56:32.073Z,90.39
2022-10-26T17:59:04.998Z,90.43
2022-10-26T18:01:32.546Z,90.57
2022-10-26T18:04:00.558Z,90.69
2022-10-26T18:06:27.815Z,90.69
2022-10-26T18:08:57.154Z,90.75
2022-10-26T18:11:27.204Z,90.81
2022-10-26T18:13:56.155Z,90.78
2022-10-26T18:16:25.402Z,90.73
2022-10-26T18:19:01.453Z,90.72
2022-10-26T18:21:38.596Z,90.76
2022-10-26T18:24:06.939Z,90.84
2022-10-26T18:26:34.416Z,90.99
2022-10-26T18:29:08.167Z,91.16
2022-10-26T18:31:35.069Z,91.26
2022-10-26T18:34:04.486Z,91.32
2022-10-26T18:36:33.214Z,91.38
2022-10-26T18:39:00.027Z,91.45
2022-10-26T18:41:27.600Z,91.44
2022-10-26T18:43:59.183Z,91.43
2022-10-26T18:46:28.636Z,91.39
2022-10-26T18:48:56.422Z,91.34
2022-10-26T18:51:30.352Z,91.31
2022-10-26T18:53:58.517Z,91.24
2022-10-26T18:56:26.831Z,91.17
2022-10-26T18:59:02.605Z,91.14
2022-10-26T19:01:32.896Z,91.23
2022-10-26T19:04:10.845Z,91.38
2022-10-26T19:06:40.148Z,91.43
2022-10-26T19:09:09.621Z,91.47
2022-10-26T19:11:37.751Z,91.48
2022-10-26T19:14:04.978Z,91.55
2022-10-26T19:16:48.171Z,91.67
2022-10-26T19:19:18.297Z,91.77
2022-10-26T19:21:47.479Z,91.85
2022-10-26T19:24:20.429Z,91.91
2022-10-26T19:26:49.747Z,91.95
2022-10-26T19:29:22.915Z,91.86
2022-10-26T19:31:52.915Z,91.78
2022-10-26T19:34:19.591Z,91.73
2022-10-26T19:36:47.179Z,91.71
2022-10-26T19:39:18.003Z,91.73
2022-10-26T19:41:45.971Z,91.76
2022-10-26T19:44:13.548Z,91.84
2022-10-26T19:46:40.178Z,91.92
2022-10-26T19:49:07.545Z,91.97
2022-10-26T19:51:34.373Z,92.02
2022-10-26T19:54:03.625Z,92.08
2022-10-26T19:56:35.899Z,92.16
2022-10-26T19:59:03.462Z,92.29
2022-10-26T20:01:30.171Z,92.36
2022-10-26T20:03:57.231Z,92.29
2022-10-26T20:06:23.953Z,92.33
2022-10-26T20:08:50.989Z,92.40
2022-10-26T20:11:18.661Z,92.47
2022-10-26T20:13:47.886Z,92.53
2022-10-26T20:16:16.605Z,92.50
2022-10-26T20:18:47.560Z,92.47
2022-10-26T20:21:16.994Z,92.47
2022-10-26T20:23:45.270Z,92.50
2022-10-26T20:26:19.829Z,92.48
2022-10-26T20:28:51.996Z,92.45
2022-10-26T20:31:19.296Z,92.41
2022-10-26T20:33:51.713Z,92.36
2022-10-26T20:36:18.755Z,92.39
2022-10-26T20:38:46.017Z,92.31
2022-10-26T20:41:12.893Z,92.23
2022-10-26T20:43:41.132Z,92.15
2022-10-26T20:46:25.005Z,92.13
2022-10-26T20:48:53.197Z,92.23
2022-10-26T20:51:35.348Z,92.26
2022-10-26T20:54:02.200Z,92.38
2022-10-26T20:56:29.386Z,92.38
2022-10-26T20:59:08.413Z,92.31
2022-10-26T21:01:37.921Z,92.29
2022-10-26T21:04:05.025Z,92.28
2022-10-26T21:06:40.114Z,92.32
2022-10-26T21:09:08.997Z,92.40
2022-10-26T21:11:36.045Z,92.48
2022-10-26T21:14:04.735Z,92.54
2022-10-26T21:16:32.150Z,92.54
2022-10-26T21:18:59.892Z,92.58
2022-10-26T21:21:26.398Z,92.63
2022-10-26T21:23:54.615Z,92.70
2022-10-26T21:26:21.352Z,92.71
2022-10-26T21:28:48.425Z,92.82
2022-10-26T21:31:17.865Z,92.89
2022-10-26T21:33:46.590Z,93.00
2022-10-26T21:36:14.457Z,93.09
2022-10-26T21:38:43.245Z,93.13
2022-10-26T21:41:16.125Z,93.07
2022-10-26T21:43:47.720Z,93.04
2022-10-26T21:46:15.980Z,93.10
2022-10-26T21:48:43.024Z,93.16
2022-10-26T21:51:19.935Z,93.13
2022-10-26T21:53:47.579Z,93.05
2022-10-26T21:56:21.615Z,93.04
2022-10-26T21:58:48.958Z,93.18
2022-10-26T22:01:18.647Z,93.20
2022-10-26T22:03:46.415Z,93.26
2022-10-26T22:06:16.074Z,93.27
2022-10-26T22:08:43.333Z,93.19
2022-10-26T22:11:16.550Z,93.13
2022-10-26T22:13:44.312Z,93.23
2022-10-26T22:16:18.778Z,93.33
2022-10-26T22:18:46.096Z,93.43
2022-10-26T22:21:15.666Z,93.41
2022-10-26T22:23:43.979Z,93.51
2022-10-26T22:26:19.595Z,93.53
2022-10-26T22:28:49.226Z,93.75
2022-10-26T22:31:20.031Z,93.78
2022-10-26T22:34:01.916Z,93.87
2022-10-26T22:36:32.245Z,93.97
2022-10-26T22:38:59.308Z,94.03
2022-10-26T22:41:25.936Z,94.03
2022-10-26T22:43:52.744Z,94.16
2022-10-26T22:46:28.500Z,94.20
2022-10-26T22:48:59.285Z,94.27
2022-10-26T22:51:32.156Z,94.33
2022-10-26T22:54:01.205Z,94.19
2022-10-26T22:56:29.918Z,94.22
2022-10-26T22:58:57.516Z,94.26
2022-10-26T23:01:27.873Z,94.26
2022-10-26T23:03:57.419Z,94.31
2022-10-26T23:06:30.987Z,94.33
2022-10-26T23:08:58.445Z,94.41
2022-10-26T23:11:28.320Z,94.48
2022-10-26T23:14:15.023Z,94.48
2022-10-26T23:16:41.850Z,94.45
2022-10-26T23:19:08.925Z,94.54
2022-10-26T23:21:35.513Z,94.57
2022-10-26T23:24:02.766Z,94.57
2022-10-26T23:26:30.351Z,94.59
2022-10-26T23:28:56.970Z,94.54
2022-10-26T23:31:26.171Z,94.56
2022-10-26T23:33:54.920Z,94.63
2022-10-26T23:36:22.418Z,94.57
2022-10-26T23:38:49.498Z,94.72
2022-10-26T23:41:16.154Z,94.81
2022-10-26T23:43:42.849Z,94.84
2022-10-26T23:46:09.771Z,94.78
2022-10-26T23:48:36.913Z,94.81
2022-10-26T23:51:03.754Z,94.91
2022-10-26T23:53:30.214Z,94.94
2022-10-26T23:55:56.769Z,94.88
2022-10-26T23:58:23.476Z,94.94
